Tiempo atmosférico en la estación meteorológica de El Pinar, Depósito, Santa Cruz de Tenerife (948 m.)



Fecha
DESCASC
Temp. máxima en grados centígrados (hora)
DESCASC
Temp. mínima en grados centígrados (hora)
DESCASC
Temp. media en grados centígrados
DESCASC
Racha de viento máxima en m/sg (hora)
DESCASC
Velocidad máxima media en intervalos de 10 minutos(hora)
DESCASC
Precipitaciones diarias en mm
DESCASC
Precipitaciones de 00:00 a 06:00 en mm
DESCASC
Precipitaciones de 06:00 a 12:00 en mm
DESCASC
Precipitaciones de 12:00 a 18:00 en mm
DESCASC
Precipitaciones de 18:00 a 24:00 en mm
DESCASC
23-06-2019 20.8 (14:30) 13 (07:40) 16.9 6.67 (02:20) 2.78 (02:20) 0 0 0 0 0
22-06-2019 20.8 (12:50) 12 (06:00) 16.4 6.39 (07:00) 3.61 (14:40) 0 0 0 0 0
21-06-2019 20.7 (13:30) 13.6 (06:40) 17.2 10.56 (09:30) 4.17 (07:10) 0 0 0 0 0
20-06-2019 21 (15:40) 11.3 (00:00) 16.2 10.56 (20:50) 4.17 (14:20) 0 0 0 0 0
19-06-2019 20 (15:00) 9.7 (00:00) 14.8 7.22 (16:50) 3.61 (17:20) 0 0 0 0 0
18-06-2019 18.1 (16:20) 11.6 (00:00) 14.9 7.22 (07:30) 3.06 (07:10) 0 0 0 0 0
17-06-2019 21.1 (15:20) 10.9 (00:00) 16 8.33 (16:30) 3.06 (15:20) 0 0 0 0 0
16-06-2019 18.3 (18:50) 7.6 (00:00) 12.9 5.83 (15:40) 3.61 (19:10) 0 0 0 0 0
15-06-2019 14.7 (16:30) 8.8 (00:00) 11.8 4.72 (16:30) 2.5 (16:30) 0.2 0.2 0 0 0
14-06-2019 14.9 (09:50) 8.6 (00:00) 11.8 8.06 (10:40) 3.89 (10:40) 0 0 0 0 0
13-06-2019 17 (14:10) 11.2 (00:00) 14.1 7.5 (18:10) 3.33 (16:10) 0 0 0 0 0
12-06-2019 19.3 (13:20) 13.2 (00:00) 16.2 12.5 (06:40) 5 (06:00) 0 0 0 0 0
11-06-2019 20.6 (13:10) 13.1 (00:00) 16.9 14.44 (19:40) 6.11 (19:50) 0 0 0 0 0
10-06-2019 20.2 (11:40) 12.8 (00:00) 16.5 11.11 (23:50) 4.44 (23:00) 0 0 0 0 0
09-06-2019 21.3 (18:50) 9.9 (00:00) 15.6 12.22 (01:50) 4.72 (01:50) 0 0 0 0 0
08-06-2019 15.8 (11:20) 10.9 (00:00) 13.3 9.72 (19:00) 3.89 (19:00) 0 0 0 0 0
07-06-2019 18 (14:30) 9.9 (00:00) 13.9 8.89 (04:00) 3.89 (02:50) 0 0 0 0 0
06-06-2019 17.7 (14:40) 9.9 (00:00) 13.8 8.89 (00:20) 3.61 (00:10) 0 0 0 0 0
05-06-2019 19.4 (15:10) 13 (00:00) 16.2 12.22 (05:20) 4.17 (05:00) 0 0 0 0 0
04-06-2019 29.7 (12:40) 17.2 (00:00) 23.5 12.78 (04:50) 4.17 (05:00) 0 0 0 0 0
03-06-2019 30.5 (12:30) 19 (00:00) 24.8 10.83 (21:30) 4.72 (22:30) 0 0 0 0 0
02-06-2019 29 (16:20) 17.9 (00:00) 23.4 7.5 (10:40) 3.89 (10:50) 0 0 0 0 0
01-06-2019 26.8 (12:30) 17.6 (00:00) 22.2 6.67 (17:20) 3.33 (17:40) 0 0 0 0 0
31-05-2019 26.8 (15:00) 13.9 (00:00) 20.3 5.28 (14:00) 2.78 (16:30) 0 0 0 0 0
30-05-2019 25 (15:30) 12.6 (00:00) 18.8 5 (11:50) 2.78 (13:10) 0 0 0 0 0
29-05-2019 23.2 (14:50) 13.8 (00:00) 18.5 6.11 (15:40) 3.61 (15:20) 0 0 0 0 0
28-05-2019 24.2 (16:30) 13.8 (00:00) 19 7.22 (01:10) 3.61 (16:10) 0 0 0 0 0

Gráficas

Temp. máximas Temp. mínimas Temp. medias Precipitaciones Rachas de viento máximas Velocidades máximas media en intervalos de 10 minutos

Datos horarios

Fecha y hora oficial Temperatura (ºC) Velocidad del viento (km/h) Dirección del viento Racha (km/h) Dirección de racha Precipitación (mm) Presión (hPa) Tendencia (hPa) Humedad (%)
2019-06-26 23:00:00 14 3 Noroeste 21 Noroeste 0 -- -- 84
2019-06-26 22:00:00 14.5 6 Noroeste 21 Noroeste 0 -- -- 86
2019-06-26 21:00:00 15 10 Noroeste 36 Noroeste 0 -- -- 79
2019-06-26 20:00:00 16.4 12 Noroeste 41 Noroeste 0 -- -- 72
2019-06-26 19:00:00 19.5 6 Oeste 24 Noroeste 0 -- -- 57
2019-06-26 18:00:00 20 10 Noroeste 22 Norte 0 -- -- 63
2019-06-26 17:00:00 20.4 9 Norte 27 Noroeste 0 -- -- 63
2019-06-26 16:00:00 19.6 16 Noroeste 31 Norte 0 -- -- 67
2019-06-26 15:00:00 20.5 12 Noroeste 27 Noroeste 0 -- -- 59
2019-06-26 14:00:00 19 12 Sudeste 25 Sudeste 0 -- -- 66
2019-06-26 13:00:00 19.1 13 Sudeste 24 Sudeste 0 -- -- 68
2019-06-26 12:00:00 19.9 10 Sudeste 21 Sur 0 -- -- 64
2019-06-26 11:00:00 19.9 6 Sur 17 Oeste 0 -- -- 68
2019-06-26 10:00:00 19.5 5 Sur 13 Sur 0 -- -- 68
2019-06-26 09:00:00 17.7 4 Sur 10 Sudeste 0 -- -- 65
2019-06-26 08:00:00 14.6 5 Noroeste 19 Noroeste 0 -- -- 45
2019-06-26 07:00:00 14.7 9 Norte 21 Noroeste 0 -- -- 66
2019-06-26 06:00:00 14.8 4 Noroeste 14 Noroeste 0 -- -- 29
2019-06-26 05:00:00 14.2 6 Noroeste 11 Oeste 0 -- -- 46
2019-06-26 04:00:00 14.5 4 Noroeste 16 Norte 0 -- -- 46
2019-06-26 03:00:00 14.6 5 Norte 14 Norte 0 -- -- 54
2019-06-26 02:00:00 15 5 Nordeste 18 Sur 0 -- -- 77
2019-06-26 01:00:00 15.2 7 Norte 22 Nordeste 0 -- -- 77
2019-06-26 00:00:00 15.2 10 Norte 26 Noroeste 0 -- -- 78
2019-06-25 23:00:00 14.2 3 Este 9 Nordeste 0 -- -- 66
2019-06-25 22:00:00 14.9 3 Norte 9 Norte 0 -- -- 49
2019-06-25 21:00:00 16 4 Noroeste 9 Noroeste 0 -- -- 80
2019-06-25 20:00:00 17.6 4 Sur 9 Sudeste 0 -- -- 93
2019-06-25 19:00:00 18.5 4 Sudeste 10 Sudeste 0 -- -- 89
2019-06-25 18:00:00 18.1 4 Sudeste 13 Sur 0 -- -- 89
2019-06-25 17:00:00 19.6 8 Sur 23 Sur 0 -- -- 83
2019-06-25 16:00:00 19.1 7 Sudoeste 14 Sudeste 0 -- -- 85
2019-06-25 15:00:00 18.6 10 Sur 19 Sur 0 -- -- 90
2019-06-25 14:00:00 18.7 6 Sudoeste 14 Sur 0 -- -- 91
2019-06-25 13:00:00 18.4 6 Sudoeste 17 Sur 0 -- -- 96
2019-06-25 12:00:00 17.9 8 Sur 15 Sur 0 -- -- 97
2019-06-25 11:00:00 18 4 Sur 9 Sudeste 0 -- -- 96
2019-06-25 10:00:00 17.1 3 Este 10 Sudeste 0 -- -- 98
2019-06-25 09:00:00 17 4 Sudeste 6 Este 0 -- -- 99
2019-06-25 08:00:00 14.4 3 Noroeste 6 Noroeste 0 -- -- 98
2019-06-25 07:00:00 14.3 3 Norte 7 Noroeste 0 -- -- 96
2019-06-25 06:00:00 14.5 4 Norte 7 Noroeste 0 -- -- 96
2019-06-25 05:00:00 14.9 3 Norte 7 Norte 0 -- -- 96
2019-06-25 04:00:00 15.1 5 Norte 8 Norte 0 -- -- 95
2019-06-25 03:00:00 15.6 3 Noroeste 8 Oeste 0 -- -- 94
2019-06-25 02:00:00 16.6 5 Noroeste 12 Noroeste 0 -- -- 93
2019-06-25 01:00:00 17.2 5 Noroeste 15 Noroeste 0 -- -- 95
2019-06-25 00:00:00 17.2 2 Oeste 20 Noroeste 0 -- -- 91
2019-06-24 23:00:00 17.2 3 Oeste 12 Noroeste 0 -- -- 92
2019-06-24 22:00:00 17.9 3 Sur 20 Oeste 0 -- -- 92
2019-06-24 21:00:00 18.2 6 Noroeste 25 Noroeste 0 -- -- 91
2019-06-24 20:00:00 18.6 6 Oeste 16 Oeste 0 -- -- 90
2019-06-24 19:00:00 19.7 7 Noroeste 18 Oeste 0 -- -- 85
2019-06-24 18:00:00 20.2 8 Sudeste 13 Sudeste 0 -- -- 86
2019-06-24 17:00:00 20.2 8 Sudeste 14 Sudeste 0 -- -- 85
2019-06-24 16:00:00 21.2 8 Sudeste 15 Sur 0 -- -- 81
2019-06-24 15:00:00 21.1 5 Sudeste 18 Este 0 -- -- 79
2019-06-24 14:00:00 21.9 10 Sudeste 18 Sur 0 -- -- 76
2019-06-24 13:00:00 20.6 9 Sur 21 Sur 0 -- -- 81
2019-06-24 12:00:00 19.6 9 Sur 17 Sur 0 -- -- 83
2019-06-24 11:00:00 19.6 6 Sur 13 Sudeste 0 -- -- 82
2019-06-24 10:00:00 19.1 5 Sudeste 15 Sudeste 0 -- -- 79
2019-06-24 09:00:00 18.1 3 Sudeste 7 Sudeste 0 -- -- 79
2019-06-24 08:00:00 14.3 4 Norte 8 Noroeste 0 -- -- 83
2019-06-24 07:00:00 14.4 3 Norte 8 Noroeste 0 -- -- 82
2019-06-24 06:00:00 14.3 4 Noroeste 8 Oeste 0 -- -- 79
2019-06-24 05:00:00 14.7 4 Noroeste 8 Noroeste 0 -- -- 75
2019-06-24 04:00:00 14.6 0 Calma 7 Noroeste 0 -- -- 71
2019-06-24 03:00:00 13.6 3 Norte 8 Norte 0 -- -- 62
2019-06-24 02:00:00 13.3 5 Norte 8 Norte 0 -- -- 69
2019-06-24 01:00:00 13.5 6 Norte 8 Norte 0 -- -- 72
2019-06-24 00:00:00 14.9 3 Norte 18 Oeste 0 -- -- 81
2019-06-23 23:00:00 16.2 4 Oeste 10 Oeste 0 -- -- 85
2019-06-23 22:00:00 17.2 4 Sudoeste 18 Oeste 0 -- -- 85
2019-06-23 21:00:00 17.9 3 Sudoeste 11 Oeste 0 -- -- 84
2019-06-23 20:00:00 18.4 3 Sudeste 12 Sur 0 -- -- 84
2019-06-23 19:00:00 19.4 5 Sur 16 Oeste 0 -- -- 79
2019-06-23 18:00:00 20.1 5 Sudoeste 16 Sudeste 0 -- -- 74
2019-06-23 17:00:00 19.9 6 Sudoeste 16 Nordeste 0 -- -- 73
2019-06-23 16:00:00 19.8 9 Norte 21 Norte 0 -- -- 74
2019-06-23 15:00:00 20 7 Norte 20 Norte 0 -- -- 75
2019-06-23 14:00:00 20.7 9 Norte 19 Sur 0 -- -- 72
2019-06-23 13:00:00 19.8 9 Sudeste 21 Sudeste 0 -- -- 72
2019-06-23 12:00:00 19.5 7 Sudeste 18 Sur 0 -- -- 75
2019-06-23 11:00:00 19.1 8 Sudeste 17 Sudeste 0 -- -- 76
2019-06-23 10:00:00 18.5 7 Sudeste 13 Sudeste 0 -- -- 75
2019-06-23 09:00:00 17.1 5 Sudeste 9 Sudeste 0 -- -- 78
2019-06-23 08:00:00 13.8 5 Noroeste 12 Nordeste 0 -- -- 86
2019-06-23 07:00:00 14.3 3 Sudoeste 21 Noroeste 0 -- -- 79
2019-06-23 06:00:00 13.8 4 Sudeste 13 Sur 0 -- -- 86
2019-06-23 05:00:00 13.5 4 Oeste 20 Este 0 -- -- 85
2019-06-23 04:00:00 14.9 8 Noroeste 18 Oeste 0 -- -- 79
2019-06-23 03:00:00 14.7 3 Nordeste 24 Oeste 0 -- -- 78
2019-06-23 02:00:00 14.1 2 Este 11 Nordeste 0 -- -- 70
2019-06-23 01:00:00 13.7 5 Norte 9 Norte 0 -- -- 66
2019-06-23 00:00:00 15.4 6 Norte 19 Norte 0 -- -- 67
2019-06-22 23:00:00 13.9 3 Norte 8 Noroeste 0 -- -- 64
2019-06-22 22:00:00 15.5 2 Norte 18 Norte 0 -- -- 62
2019-06-22 21:00:00 16.5 4 Nordeste 15 Noroeste 0 -- -- 68
2019-06-22 20:00:00 18 6 Sur 13 Noroeste 0 -- -- 82
2019-06-22 19:00:00 19.2 6 Sudeste 14 Sudeste 0 -- -- 79
2019-06-22 18:00:00 19.8 9 Sur 16 Sur 0 -- -- 76
2019-06-22 17:00:00 19.4 8 Este 17 Sudeste 0 -- -- 75
2019-06-22 16:00:00 20.1 10 Sudeste 19 Sudeste 0 -- -- 71
2019-06-22 15:00:00 20.5 11 Sudeste 21 Sudeste 0 -- -- 70
2019-06-22 14:00:00 20.3 10 Sur 20 Sur 0 -- -- 70
2019-06-22 13:00:00 20.6 10 Sur 19 Sur 0 -- -- 69
2019-06-22 12:00:00 20 11 Sudeste 22 Sudoeste 0 -- -- 69
2019-06-22 11:00:00 19.3 8 Sur 15 Sur 0 -- -- 69
2019-06-22 10:00:00 18.5 8 Sudeste 14 Sudeste 0 -- -- 69
2019-06-22 09:00:00 17.1 5 Sur 10 Sur 0 -- -- 65
2019-06-22 08:00:00 13.9 2 Este 18 Norte 0 -- -- 58
2019-06-22 07:00:00 13.1 9 Noroeste 23 Noroeste 0 -- -- 57
2019-06-22 06:00:00 12 3 Norte 9 Este 0 -- -- 62
2019-06-22 05:00:00 13.7 3 Norte 10 Este 0 -- -- 64
2019-06-22 04:00:00 15.3 3 Nordeste 20 Norte 0 -- -- 53
2019-06-22 03:00:00 14.4 5 Nordeste 18 Nordeste 0 -- -- 57
2019-06-22 02:00:00 13.8 3 Este 10 Oeste 0 -- -- 74
2019-06-22 01:00:00 13.3 4 Noroeste 19 Noroeste 0 -- -- 79
2019-06-22 00:00:00 15.2 5 Noroeste 17 Sudoeste 0 -- -- 70
2019-06-21 23:00:00 15.1 9 Oeste 23 Noroeste 0 -- -- 70
2019-06-21 22:00:00 14.8 4 Nordeste 14 Norte 0 -- -- 78
2019-06-21 21:00:00 15.8 3 Sudeste 12 Noroeste 0 -- -- 79
2019-06-21 20:00:00 16.8 4 Norte 27 Oeste 0 -- -- 72
2019-06-21 19:00:00 18.1 8 Norte 24 Noroeste 0 -- -- 74
2019-06-21 18:00:00 18.1 8 Norte 26 Noroeste 0 -- -- 75
2019-06-21 17:00:00 20 8 Nordeste 24 Noroeste 0 -- -- 63
2019-06-21 16:00:00 20.1 7 Norte 24 Norte 0 -- -- 65
2019-06-21 15:00:00 20.5 8 Norte 26 Norte 0 -- -- 63
2019-06-21 14:00:00 19.8 9 Noroeste 25 Norte 0 -- -- 66
2019-06-21 13:00:00 20.5 6 Nordeste 24 Noroeste 0 -- -- 61
2019-06-21 12:00:00 19.6 9 Sudeste 19 Sur 0 -- -- 68
2019-06-21 11:00:00 19 6 Sur 22 Noroeste 0 -- -- 67
2019-06-21 10:00:00 17 9 Noroeste 38 Noroeste 0 -- -- 70
2019-06-21 09:00:00 15.7 7 Nordeste 31 Norte 0 -- -- 78
2019-06-21 08:00:00 14.2 7 Noroeste 32 Norte 0 -- -- 76
2019-06-21 07:00:00 13.8 14 Norte 30 Norte 0 -- -- 72
2019-06-21 06:00:00 13.7 12 Noroeste 28 Norte 0 -- -- 78
2019-06-21 05:00:00 14.4 13 Norte 26 Noroeste 0 -- -- 84
2019-06-21 04:00:00 14.4 7 Este 27 Noroeste 0 -- -- 89
2019-06-21 03:00:00 14.2 9 Este 25 Este 0 -- -- 89
2019-06-21 02:00:00 14.2 8 Nordeste 17 Este 0 -- -- 83
2019-06-21 01:00:00 14.8 4 Norte 12 Norte 0 -- -- 85
2019-06-21 00:00:00 14.9 6 Sudeste 25 Nordeste 0 -- -- 85
2019-06-20 23:00:00 14.8 4 Este 21 Sur 0 -- -- 81
2019-06-20 22:00:00 15 9 Noroeste 25 Oeste 0 -- -- 82
2019-06-20 21:00:00 15.4 10 Norte 38 Norte 0 -- -- 78
2019-06-20 20:00:00 15.9 10 Noroeste 21 Noroeste 0 -- -- 80
2019-06-20 19:00:00 16 5 Nordeste 22 Norte 0 -- -- 81
2019-06-20 18:00:00 16.7 13 Noroeste 33 Norte 0 -- -- 73
2019-06-20 17:00:00 18.5 8 Noroeste 27 Nordeste 0 -- -- 68
2019-06-20 16:00:00 19.9 5 Noroeste 30 Este 0 -- -- 62
2019-06-20 15:00:00 19.8 12 Sudeste 24 Sudeste 0 -- -- 59
2019-06-20 14:00:00 19.7 11 Sudeste 24 Sudeste 0 -- -- 61
2019-06-20 13:00:00 20.5 8 Sur 21 Sur 0 -- -- 60
2019-06-20 12:00:00 19.3 8 Noroeste 23 Noroeste 0 -- -- 55
2019-06-20 11:00:00 19 6 Noroeste 18 Noroeste 0 -- -- 60
2019-06-20 10:00:00 16.9 8 Sudeste 25 Nordeste 0 -- -- 80
2019-06-20 09:00:00 15.7 6 Sudoeste 22 Norte 0 -- -- 73
2019-06-20 08:00:00 13.9 8 Norte 27 Norte 0 -- -- 86
2019-06-20 07:00:00 13.7 10 Noroeste 31 Oeste 0 -- -- 83
2019-06-20 06:00:00 13.6 10 Noroeste 24 Noroeste 0 -- -- 83
2019-06-20 05:00:00 13.6 7 Noroeste 25 Noroeste 0 -- -- 89
2019-06-20 04:00:00 13.7 10 Norte 25 Noroeste 0 -- -- 82
2019-06-20 03:00:00 13.5 10 Noroeste 32 Noroeste 0 -- -- 91
2019-06-20 02:00:00 12.1 5 Noroeste 18 Oeste 0 -- -- 92
2019-06-20 01:00:00 11.5 6 Noroeste 9 Norte 0 -- -- 88
2019-06-20 00:00:00 12.2 2 Oeste 11 Noroeste 0 -- -- 85
2019-06-19 23:00:00 12.5 4 Noroeste 11 Noroeste 0 -- -- 81
2019-06-19 22:00:00 13.9 4 Noroeste 11 Noroeste 0 -- -- 77
2019-06-19 21:00:00 15.6 3 Noroeste 13 Norte 0 -- -- 70
2019-06-19 20:00:00 17.6 2 Norte 11 Sur 0 -- -- 60
2019-06-19 19:00:00 19.4 3 Sudeste 14 Noroeste 0 -- -- 73
2019-06-19 18:00:00 19.2 7 Noroeste 22 Noroeste 0 -- -- 68
2019-06-19 17:00:00 19 9 Noroeste 26 Oeste 0 -- -- 70
2019-06-19 16:00:00 18.8 6 Sudoeste 24 Oeste 0 -- -- 73
2019-06-19 15:00:00 20 11 Norte 23 Noroeste 0 -- -- 69
2019-06-19 14:00:00 19.8 8 Norte 21 Este 0 -- -- 69
2019-06-19 13:00:00 19.1 6 Sudoeste 22 Noroeste 0 -- -- 68
2019-06-19 12:00:00 17.9 9 Sur 16 Este 0 -- -- 76
2019-06-19 11:00:00 17.2 6 Sudeste 14 Oeste 0 -- -- 80
2019-06-19 10:00:00 16.6 5 Sudeste 22 Este 0 -- -- 81
2019-06-19 09:00:00 15.6 5 Sur 15 Norte 0 -- -- 83
2019-06-19 08:00:00 11.8 4 Norte 10 Noroeste 0 -- -- 93
2019-06-19 07:00:00 12.6 6 Noroeste 16 Noroeste 0 -- -- 87
2019-06-19 06:00:00 10.9 6 Noroeste 13 Noroeste 0 -- -- 92
2019-06-19 05:00:00 10.2 5 Norte 8 Norte 0 -- -- 90
2019-06-19 04:00:00 10.6 5 Norte 9 Noroeste 0 -- -- 89
2019-06-19 03:00:00 10.4 4 Norte 8 Norte 0 -- -- 83
2019-06-19 02:00:00 9.7 7 Norte 9 Norte 0 -- -- 74
2019-06-19 01:00:00 -- -- -- -- -- -- -- -- --
2019-06-19 00:00:00 -- -- -- -- -- -- -- -- --
2019-06-18 23:00:00 -- -- -- -- -- -- -- -- --
2019-06-18 22:00:00 -- -- -- -- -- -- -- -- --
2019-06-18 21:00:00 -- -- -- -- -- -- -- -- --
2019-06-18 20:00:00 -- -- -- -- -- -- -- -- --
2019-06-18 19:00:00 -- -- -- -- -- -- -- -- --
2019-06-18 18:00:00 16.8 5 Sur 13 Sudeste 0 -- -- 88
2019-06-18 17:00:00 17.2 7 Sudeste 18 Sur 0 -- -- 88
2019-06-18 16:00:00 17.2 5 Sur 12 Sudeste 0 -- -- 90
2019-06-18 15:00:00 17.6 7 Sur 13 Sudeste 0 -- -- 91
2019-06-18 14:00:00 17.8 5 Este 14 Sudeste 0 -- -- 91
2019-06-18 13:00:00 17.2 5 Sudeste 12 Sudeste 0 -- -- 94
2019-06-18 12:00:00 16.6 8 Sudeste 12 Sur 0 -- -- 99
2019-06-18 11:00:00 16.8 7 Sudeste 10 Sudeste 0 -- -- 98
2019-06-18 10:00:00 16.7 6 Sudeste 13 Este 0 -- -- 98
2019-06-18 09:00:00 17 4 Este 10 Este 0 -- -- 91
2019-06-18 08:00:00 16.2 5 Noroeste 26 Noroeste 0 -- -- 91
2019-06-18 07:00:00 15.5 10 Noroeste 25 Oeste 0 -- -- 93
2019-06-18 06:00:00 15.3 9 Noroeste 19 Noroeste 0 -- -- 91
2019-06-18 05:00:00 13.6 6 Norte 13 Norte 0 -- -- 92
2019-06-18 04:00:00 13.1 4 Norte 8 Noroeste 0 -- -- 89
2019-06-18 03:00:00 13.5 3 Norte 6 Noroeste 0 -- -- 87
2019-06-18 02:00:00 13.7 4 Noroeste 8 Oeste 0 -- -- 88
2019-06-18 01:00:00 13.7 0 Calma 6 Noroeste 0 -- -- 90
2019-06-18 00:00:00 14.1 2 Norte 7 Norte 0 -- -- 88
2019-06-17 23:00:00 14.4 3 Nordeste 8 Norte 0 -- -- 86
2019-06-17 22:00:00 15.4 3 Nordeste 13 Nordeste 0 -- -- 82
2019-06-17 21:00:00 16.7 5 Sudeste 19 Noroeste 0 -- -- 80
2019-06-17 20:00:00 17.4 6 Noroeste 23 Noroeste 0 -- -- 80
2019-06-17 19:00:00 18.1 8 Oeste 24 Norte 0 -- -- 77
2019-06-17 18:00:00 19.7 8 Sudeste 22 Noroeste 0 -- -- 69
2019-06-17 17:00:00 20.9 7 Sudoeste 30 Oeste 0 -- -- 60
2019-06-17 16:00:00 20.9 9 Oeste 27 Sudoeste 0 -- -- 58
2019-06-17 15:00:00 20.7 9 Sudeste 19 Sudeste 0 -- -- 71
2019-06-17 14:00:00 20.4 8 Sudeste 22 Sudeste 0 -- -- 74
2019-06-17 13:00:00 20.4 8 Sudeste 17 Sudeste 0 -- -- 71
2019-06-17 12:00:00 19.2 7 Sudeste 17 Sur 0 -- -- 76
2019-06-17 11:00:00 19.1 8 Sudeste 14 Sudeste 0 -- -- 73
2019-06-17 10:00:00 18 4 Sur 11 Sudeste 0 -- -- 76
2019-06-17 09:00:00 16.5 3 Sudeste 8 Sudeste 0 -- -- 81
2019-06-17 08:00:00 12.4 0 Calma 4 Nordeste 0 -- -- 83
2019-06-17 07:00:00 12.6 0 Calma 9 Norte 0 -- -- 82
2019-06-17 06:00:00 12.7 2 Nordeste 10 Noroeste 0 -- -- 79
2019-06-17 05:00:00 12.2 3 Norte 8 Noroeste 0 -- -- 76
2019-06-17 04:00:00 11.8 2 Norte 8 Norte 0 -- -- 80
2019-06-17 03:00:00 11.1 3 Norte 8 Norte 0 -- -- 77
2019-06-17 02:00:00 10.9 5 Noroeste 8 Norte 0 -- -- 72
2019-06-17 01:00:00 11.4 4 Noroeste 6 Noroeste 0 -- -- 79
2019-06-17 00:00:00 11.6 4 Norte 6 Norte 0 -- -- 79
2019-06-16 23:00:00 11.8 4 Noroeste 6 Norte 0 -- -- 81
2019-06-16 22:00:00 12.3 4 Norte 6 Norte 0 -- -- 79
2019-06-16 21:00:00 14.6 0 Calma 10 Sudoeste 0 -- -- 88
2019-06-16 20:00:00 16 5 Sudoeste 19 Sur 0 -- -- 83
2019-06-16 19:00:00 18.2 9 Sur 19 Sur 0 -- -- 75
2019-06-16 18:00:00 17.8 8 Sur 17 Sur 0 -- -- 75
2019-06-16 17:00:00 17.7 8 Sudeste 20 Sudeste 0 -- -- 75
2019-06-16 16:00:00 17.6 7 Sudeste 21 Sur 0 -- -- 76
2019-06-16 15:00:00 17.6 10 Sudeste 18 Sudeste 0 -- -- 76
2019-06-16 14:00:00 17.7 11 Sudeste 19 Sudeste 0 -- -- 75
2019-06-16 13:00:00 16.1 9 Sudeste 17 Sudeste 0 -- -- 82
2019-06-16 12:00:00 15.9 8 Sudeste 15 Sudeste 0 -- -- 85
2019-06-16 11:00:00 15.1 6 Sudeste 13 Sudeste 0 -- -- 88
2019-06-16 10:00:00 15.1 6 Sudeste 12 Sudeste 0 -- -- 85
2019-06-16 09:00:00 13.7 5 Sudeste 9 Este 0 -- -- 90
2019-06-16 08:00:00 9.5 2 Norte 16 Noroeste 0 -- -- 93
2019-06-16 07:00:00 7.7 5 Norte 11 Noroeste 0 -- -- 97
2019-06-16 06:00:00 7.6 6 Norte 8 Norte 0 -- -- 96
2019-06-16 05:00:00 7.7 5 Norte 9 Norte 0 -- -- 96
2019-06-16 04:00:00 7.7 6 Norte 9 Norte 0 -- -- 96
2019-06-16 03:00:00 8 6 Noroeste 9 Noroeste 0 -- -- 96
2019-06-16 02:00:00 8.2 6 Norte 8 Norte 0 -- -- 96
2019-06-16 01:00:00 8.5 6 Norte 9 Norte 0 -- -- 94
2019-06-16 00:00:00 9.4 5 Norte 8 Noroeste 0 -- -- 91
2019-06-15 23:00:00 11 3 Norte 4 Norte 0 -- -- 91
2019-06-15 22:00:00 12.4 0 Calma 6 Este 0 -- -- 91
2019-06-15 21:00:00 13.1 2 Sudeste 10 Sur 0 -- -- 91
2019-06-15 20:00:00 13.6 4 Este 10 Sudeste 0 -- -- 88
2019-06-15 19:00:00 14.2 6 Sudeste 12 Sudeste 0 -- -- 86
2019-06-15 18:00:00 13.9 5 Sudeste 13 Sudeste 0 -- -- 88
2019-06-15 17:00:00 14 6 Sudeste 17 Sur 0 -- -- 87
2019-06-15 16:00:00 14.1 4 Sudeste 13 Sudeste 0 -- -- 86
2019-06-15 15:00:00 13.7 5 Sudeste 12 Sur 0 -- -- 89
2019-06-15 14:00:00 13 6 Sudeste 12 Sudeste 0 -- -- 93
2019-06-15 13:00:00 13.6 5 Sudeste 13 Sudeste 0 -- -- 91
2019-06-15 12:00:00 13.8 8 Sudeste 14 Sudeste 0 -- -- 84
2019-06-15 11:00:00 12.7 5 Sudeste 9 Este 0 -- -- 84
2019-06-15 10:00:00 12.4 5 Sudeste 10 Este 0 -- -- 91
2019-06-15 09:00:00 11.7 0 Calma 7 Noroeste 0 -- -- 92
2019-06-15 08:00:00 10.6 4 Noroeste 9 Noroeste 0 -- -- 97
2019-06-15 07:00:00 10.7 4 Norte 8 Este 0 -- -- 96
2019-06-15 06:00:00 11.2 3 Norte 6 Sudeste 0.2 -- -- 97
2019-06-15 05:00:00 11.7 5 Este 15 Sudeste 0 -- -- 99
2019-06-15 04:00:00 12 3 Este 9 Sur 0 -- -- 98
2019-06-15 03:00:00 11.3 3 Norte 12 Noroeste 0 -- -- 96
2019-06-15 02:00:00 9.6 5 Norte 13 Norte 0 -- -- 88
2019-06-15 01:00:00 9.6 6 Norte 16 Noroeste 0 -- -- 83
2019-06-15 00:00:00 8.8 4 Norte 10 Nordeste 0 -- -- 87
2019-06-14 23:00:00 9.8 4 Norte 7 Norte 0 -- -- 85
2019-06-14 22:00:00 10.9 3 Nordeste 8 Noroeste 0 -- -- 85
2019-06-14 21:00:00 12.8 2 Noroeste 6 Sudeste 0 -- -- 81
2019-06-14 20:00:00 13.7 2 Sudeste 13 Sur 0 -- -- 89
2019-06-14 19:00:00 14.7 7 Sudeste 15 Sudeste 0 -- -- 83
2019-06-14 18:00:00 13.9 9 Sudeste 17 Este 0 -- -- 88
2019-06-14 17:00:00 14 8 Este 15 Sudeste 0 -- -- 89
2019-06-14 16:00:00 14 7 Sudeste 13 Sudeste 0 -- -- 89
2019-06-14 15:00:00 13.6 5 Sudeste 12 Sudeste 0 -- -- 89
2019-06-14 14:00:00 14.2 8 Sudeste 15 Sudeste 0 -- -- 82
2019-06-14 13:00:00 14.2 7 Este 18 Este 0 -- -- 77
2019-06-14 12:00:00 13.5 8 Este 20 Sudeste 0 -- -- 76
2019-06-14 11:00:00 13.5 11 Sudeste 29 Sudeste 0 -- -- 82
2019-06-14 10:00:00 14.9 13 Sudeste 24 Sudeste 0 -- -- 73
2019-06-14 09:00:00 13.7 9 Este 16 Este 0 -- -- 69
2019-06-14 08:00:00 10 6 Norte 18 Nordeste 0 -- -- 80
2019-06-14 07:00:00 9.8 9 Norte 19 Norte 0 -- -- 82
2019-06-14 06:00:00 8.6 4 Nordeste 10 Norte 0 -- -- 87
2019-06-14 05:00:00 8.7 5 Norte 9 Norte 0 -- -- 86
2019-06-14 04:00:00 9.8 6 Norte 16 Norte 0 -- -- 86
2019-06-14 03:00:00 10.6 5 Norte 22 Nordeste 0 -- -- 81
2019-06-14 02:00:00 11.4 8 Nordeste 19 Nordeste 0 -- -- 87
2019-06-14 01:00:00 11 8 Nordeste 20 Nordeste 0 -- -- 83
2019-06-14 00:00:00 11.2 4 Norte 13 Este 0 -- -- 83
2019-06-13 23:00:00 12.7 5 Norte 13 Este 0 -- -- 79
2019-06-13 22:00:00 13.2 4 Nordeste 12 Nordeste 0 -- -- 78
2019-06-13 21:00:00 13.3 5 Norte 12 Oeste 0 -- -- 76
2019-06-13 20:00:00 14.6 4 Oeste 13 Este 0 -- -- 72
2019-06-13 19:00:00 15.3 5 Nordeste 27 Oeste 0 -- -- 66
2019-06-13 18:00:00 16.4 6 Sur 17 Norte 0 -- -- 65
2019-06-13 17:00:00 15.5 5 Sur 21 Sudeste 0 -- -- 68
2019-06-13 16:00:00 15.7 5 Este 26 Sudeste 0 -- -- 68
2019-06-13 15:00:00 16.7 8 Este 26 Nordeste 0 -- -- 63
2019-06-13 14:00:00 16.9 8 Nordeste 18 Este 0 -- -- 70
2019-06-13 13:00:00 15.6 6 Oeste 16 Oeste 0 -- -- 69
2019-06-13 12:00:00 14.8 6 Este 17 Este 0 -- -- 76
2019-06-13 11:00:00 14.2 5 Nordeste 14 Noroeste 0 -- -- 80
2019-06-13 10:00:00 13 5 Este 16 Este 0 -- -- 86
2019-06-13 09:00:00 12.7 3 Nordeste 14 Noroeste 0 -- -- 82
2019-06-13 08:00:00 12.1 6 Norte 21 Nordeste 0 -- -- 79
2019-06-13 07:00:00 11.9 8 Nordeste 25 Este 0 -- -- 86
2019-06-13 06:00:00 11.9 5 Noroeste 12 Noroeste 0 -- -- 84
2019-06-13 05:00:00 12.3 6 Nordeste 23 Noroeste 0 -- -- 88
2019-06-13 04:00:00 12.1 5 Norte 18 Oeste 0 -- -- 85
2019-06-13 03:00:00 12 5 Nordeste 16 Norte 0 -- -- 86
2019-06-13 02:00:00 12.6 4 Sudeste 17 Nordeste 0 -- -- 90
2019-06-13 01:00:00 13.4 4 Norte 20 Norte 0 -- -- 82
2019-06-13 00:00:00 13.5 7 Norte 18 Norte 0 -- -- 85
2019-06-12 23:00:00 13.9 4 Norte 12 Noroeste 0 -- -- 87
2019-06-12 22:00:00 13.9 5 Sur 17 Sur 0 -- -- 87
2019-06-12 21:00:00 14.4 5 Sur 18 Sur 0 -- -- 82
2019-06-12 20:00:00 15.4 6 Sudoeste 18 Noroeste 0 -- -- 76
2019-06-12 19:00:00 17.2 6 Sur 19 Sudoeste 0 -- -- 71
2019-06-12 18:00:00 16.9 7 Oeste 24 Norte 0 -- -- 73
2019-06-12 17:00:00 16.7 6 Este 18 Oeste 0 -- -- 76
2019-06-12 16:00:00 16.9 6 Sudeste 22 Oeste 0 -- -- 75
2019-06-12 15:00:00 16.3 11 Sudeste 24 Norte 0 -- -- 80
2019-06-12 14:00:00 17.6 6 Noroeste 28 Norte 0 -- -- 75
2019-06-12 13:00:00 18.4 9 Norte 22 Norte 0 -- -- 69
2019-06-12 12:00:00 17.5 6 Nordeste 21 Norte 0 -- -- 74
2019-06-12 11:00:00 16.2 6 Este 23 Sudeste 0 -- -- 80
2019-06-12 10:00:00 16.1 7 Sudeste 29 Norte 0 -- -- 83
2019-06-12 09:00:00 14.8 11 Norte 27 Nordeste 0 -- -- 88
2019-06-12 08:00:00 13.7 4 Sur 29 Nordeste 0 -- -- 91
2019-06-12 07:00:00 13.7 9 Norte 45 Noroeste 0 -- -- 86
2019-06-12 06:00:00 13.4 18 Noroeste 39 Noroeste 0 -- -- 90
2019-06-12 05:00:00 14.1 12 Norte 36 Nordeste 0 -- -- 83
2019-06-12 04:00:00 13.9 13 Norte 27 Norte 0 -- -- 82
2019-06-12 03:00:00 13.8 6 Nordeste 34 Norte 0 -- -- 83
2019-06-12 02:00:00 14.6 12 Norte 37 Nordeste 0 -- -- 76
2019-06-12 01:00:00 14 10 Norte 33 Noroeste 0 -- -- 87
2019-06-12 00:00:00 14 6 Este 21 Este 0 -- -- 91
2019-06-11 23:00:00 14.1 6 Nordeste 51 Nordeste 0 -- -- 90
2019-06-11 22:00:00 14.3 16 Norte 49 Norte 0 -- -- 86
2019-06-11 21:00:00 14.4 8 Norte 42 Noroeste 0 -- -- 88
2019-06-11 20:00:00 15 22 Noroeste 52 Noroeste 0 -- -- 87
2019-06-11 19:00:00 17 12 Nordeste 28 Nordeste 0 -- -- 73
2019-06-11 18:00:00 17.5 6 Nordeste 43 Norte 0 -- -- 74
2019-06-11 17:00:00 18.2 16 Norte 44 Noroeste 0 -- -- 72
2019-06-11 16:00:00 20 8 Norte 25 Norte 0 -- -- 65
2019-06-11 15:00:00 19.4 10 Noroeste 40 Norte 0 -- -- 67
2019-06-11 14:00:00 19.5 14 Norte 39 Norte 0 -- -- 65
2019-06-11 13:00:00 20.3 10 Norte 38 Nordeste 0 -- -- 60
2019-06-11 12:00:00 19 9 Nordeste 37 Norte 0 -- -- 62
2019-06-11 11:00:00 17.4 13 Norte 41 Noroeste 0 -- -- 68
2019-06-11 10:00:00 16 11 Norte 44 Norte 0 -- -- 72
2019-06-11 09:00:00 15.7 10 Norte 38 Noroeste 0 -- -- 62
2019-06-11 08:00:00 14 19 Noroeste 40 Noroeste 0 -- -- 64
2019-06-11 07:00:00 14.1 14 Noroeste 37 Noroeste 0 -- -- 67
2019-06-11 06:00:00 15.1 6 Nordeste 26 Nordeste 0 -- -- 56
2019-06-11 05:00:00 13.5 10 Norte 42 Noroeste 0 -- -- 68
2019-06-11 04:00:00 14.3 12 Norte 33 Norte 0 -- -- 63
2019-06-11 03:00:00 14.5 5 Norte 23 Norte 0 -- -- 60
2019-06-11 02:00:00 14.7 8 Este 25 Noroeste 0 -- -- 55
2019-06-11 01:00:00 13.7 12 Noroeste 37 Noroeste 0 -- -- 73
2019-06-11 00:00:00 13.7 8 Nordeste 40 Noroeste 0 -- -- 66
2019-06-10 23:00:00 13.9 16 Norte 35 Norte 0 -- -- 65
2019-06-10 22:00:00 13.6 8 Nordeste 36 Norte 0 -- -- 78
2019-06-10 21:00:00 13.3 11 Nordeste 33 Norte 0 -- -- 81
2019-06-10 20:00:00 14.8 9 Nordeste 27 Nordeste 0 -- -- 74
2019-06-10 19:00:00 17 6 Nordeste 24 Oeste 0 -- -- 66
2019-06-10 18:00:00 17.7 6 Sudeste 27 Nordeste 0 -- -- 66
2019-06-10 17:00:00 18.6 11 Nordeste 31 Norte 0 -- -- 63
2019-06-10 16:00:00 19.2 9 Norte 26 Este 0 -- -- 58
2019-06-10 15:00:00 18.7 8 Este 25 Este 0 -- -- 59
2019-06-10 14:00:00 19.2 11 Nordeste 31 Nordeste 0 -- -- 54
2019-06-10 13:00:00 19.2 9 Sudeste 18 Sudeste 0 -- -- 60
2019-06-10 12:00:00 19.5 10 Sudeste 22 Noroeste 0 -- -- 55
2019-06-10 11:00:00 18.4 7 Este 29 Norte 0 -- -- 54
2019-06-10 10:00:00 19.1 8 Nordeste 24 Noroeste 0 -- -- 43
2019-06-10 09:00:00 18 9 Nordeste 28 Norte 0 -- -- 38
2019-06-10 08:00:00 13.1 11 Norte 37 Norte 0 -- -- 67
2019-06-10 07:00:00 14.2 10 Norte 28 Norte 0 -- -- 60
2019-06-10 06:00:00 16.2 8 Nordeste 21 Nordeste 0 -- -- 32
2019-06-10 05:00:00 14.7 4 Norte 30 Norte 0 -- -- 39
2019-06-10 04:00:00 14.4 13 Norte 29 Norte 0 -- -- 56
2019-06-10 03:00:00 16.1 8 Nordeste 18 Norte 0 -- -- 35
2019-06-10 02:00:00 16.9 6 Nordeste 22 Noroeste 0 -- -- 33
2019-06-10 01:00:00 15.8 10 Este 23 Norte 0 -- -- 39
2019-06-10 00:00:00 14 6 Nordeste 21 Nordeste 0 -- -- 59
2019-06-09 23:00:00 14.3 8 Norte 24 Norte 0 -- -- 60
2019-06-09 22:00:00 14.6 8 Norte 24 Norte 0 -- -- 52
2019-06-09 21:00:00 15.7 7 Norte 25 Nordeste 0 -- -- 50
2019-06-09 20:00:00 18.6 8 Nordeste 24 Norte 0 -- -- 36
2019-06-09 19:00:00 21.3 8 Norte 33 Norte 0 -- -- 32
2019-06-09 18:00:00 19.1 12 Norte 36 Norte 0 -- -- 55
2019-06-09 17:00:00 16.8 10 Este 25 Este 0 -- -- 69
2019-06-09 16:00:00 17.1 9 Nordeste 28 Noroeste 0 -- -- 71
2019-06-09 15:00:00 18 12 Sudeste 24 Sudeste 0 -- -- 64
2019-06-09 14:00:00 17.4 9 Este 21 Este 0 -- -- 61
2019-06-09 13:00:00 16.2 10 Nordeste 25 Este 0 -- -- 66
2019-06-09 12:00:00 15.7 12 Sudeste 25 Sudeste 0 -- -- 70
2019-06-09 11:00:00 15.3 9 Este 27 Este 0 -- -- 73
2019-06-09 10:00:00 13.3 11 Nordeste 26 Norte 0 -- -- 85
2019-06-09 09:00:00 12.2 10 Nordeste 32 Noroeste 0 -- -- 91
2019-06-09 08:00:00 11.2 8 Nordeste 22 Nordeste 0 -- -- 90
2019-06-09 07:00:00 10.4 6 Norte 26 Norte 0 -- -- 88
2019-06-09 06:00:00 10.7 5 Nordeste 26 Nordeste 0 -- -- 92
2019-06-09 05:00:00 10.8 8 Nordeste 26 Norte 0 -- -- 88
2019-06-09 04:00:00 11 8 Este 23 Norte 0 -- -- 90
2019-06-09 03:00:00 11 4 Norte 37 Norte 0 -- -- 76
2019-06-09 02:00:00 11.9 12 Norte 44 Norte 0 -- -- 67
2019-06-09 01:00:00 9.9 3 Sudeste 10 Sudeste 0 -- -- 93
2019-06-09 00:00:00 10.9 3 Sur 23 Sudeste 0 -- -- 91
2019-06-08 23:00:00 11.8 8 Este 28 Sur 0 -- -- 90
2019-06-08 22:00:00 12.2 8 Este 25 Este 0 -- -- 90
2019-06-08 21:00:00 12.5 8 Este 25 Nordeste 0 -- -- 90
2019-06-08 20:00:00 13.5 9 Este 27 Este 0 -- -- 86
2019-06-08 19:00:00 14.1 14 Este 35 Sudeste 0 -- -- 88
2019-06-08 18:00:00 14.9 9 Sudeste 19 Sudoeste 0 -- -- 85
2019-06-08 17:00:00 14.8 10 Este 20 Norte 0 -- -- 83
2019-06-08 16:00:00 15.2 8 Este 21 Nordeste 0 -- -- 83
2019-06-08 15:00:00 15.2 4 Nordeste 13 Este 0 -- -- 85
2019-06-08 14:00:00 14.7 6 Este 23 Sudeste 0 -- -- 97
2019-06-08 13:00:00 14.5 7 Este 17 Este 0 -- -- 98
2019-06-08 12:00:00 15.4 4 Este 20 Sudeste 0 -- -- 92
2019-06-08 11:00:00 14.8 6 Este 16 Este 0 -- -- 91
2019-06-08 10:00:00 13.7 8 Este 21 Este 0 -- -- 98
2019-06-08 09:00:00 13.5 8 Este 27 Este 0 -- -- 97
2019-06-08 08:00:00 13.6 7 Nordeste 20 Nordeste 0 -- -- 95
2019-06-08 07:00:00 13.7 4 Nordeste 19 Este 0 -- -- 94
2019-06-08 06:00:00 13.6 8 Este 18 Este 0 -- -- 90
2019-06-08 05:00:00 13.7 6 Nordeste 22 Nordeste 0 -- -- 91
2019-06-08 04:00:00 13.7 8 Nordeste 24 Nordeste 0 -- -- 91
2019-06-08 03:00:00 13.5 6 Noroeste 21 Este 0 -- -- 88
2019-06-08 02:00:00 13.7 4 Este 28 Norte 0 -- -- 91
2019-06-08 01:00:00 13.2 6 Norte 24 Norte 0 -- -- 87
2019-06-08 00:00:00 13.3 5 Nordeste 18 Norte 0 -- -- 84
2019-06-07 23:00:00 13.5 6 Norte 17 Este 0 -- -- 81
2019-06-07 22:00:00 14 5 Norte 19 Este 0 -- -- 76
2019-06-07 21:00:00 14.6 8 Este 28 Sudeste 0 -- -- 76
2019-06-07 20:00:00 15.5 9 Este 19 Este 0 -- -- 70
2019-06-07 19:00:00 16.8 8 Este 21 Este 0 -- -- 68
2019-06-07 18:00:00 17.7 6 Nordeste 24 Sudeste 0 -- -- 66
2019-06-07 17:00:00 15.5 11 Este 21 Este 0 -- -- 79
2019-06-07 16:00:00 16.2 10 Este 25 Sudeste 0 -- -- 77
2019-06-07 15:00:00 16.7 7 Este 24 Nordeste 0 -- -- 72
2019-06-07 14:00:00 17.2 10 Nordeste 30 Nordeste 0 -- -- 66
2019-06-07 13:00:00 14.8 5 Sur 31 Norte 0 -- -- 81
2019-06-07 12:00:00 14.1 10 Nordeste 31 Este 0 -- -- 87
2019-06-07 11:00:00 14.8 8 Este 21 Este 0 -- -- 83
2019-06-07 10:00:00 15.6 9 Sudeste 23 Sudeste 0 -- -- 75
2019-06-07 09:00:00 14.5 6 Sudeste 18 Nordeste 0 -- -- 73
2019-06-07 08:00:00 12 5 Nordeste 14 Nordeste 0 -- -- 73
2019-06-07 07:00:00 10.2 4 Sudoeste 10 Oeste 0 -- -- 93
2019-06-07 06:00:00 11.3 5 Nordeste 19 Norte 0 -- -- 90
2019-06-07 05:00:00 12.1 8 Este 32 Noroeste 0 -- -- 93
2019-06-07 04:00:00 11.6 12 Norte 32 Norte 0 -- -- 86
2019-06-07 03:00:00 11.3 12 Norte 29 Noroeste 0 -- -- 77
2019-06-07 02:00:00 11.1 6 Sudeste 18 Sur 0 -- -- 82
2019-06-07 01:00:00 11.1 3 Sudoeste 16 Sudeste 0 -- -- 84
2019-06-07 00:00:00 11.2 4 Sudeste 15 Sudeste 0 -- -- 86
2019-06-06 23:00:00 11.5 5 Sudoeste 22 Este 0 -- -- 87
2019-06-06 22:00:00 12 8 Este 17 Sudeste 0 -- -- 88
2019-06-06 21:00:00 12.6 4 Sudeste 15 Sudeste 0 -- -- 81
2019-06-06 20:00:00 14.7 7 Norte 26 Noroeste 0 -- -- 65
2019-06-06 19:00:00 15.2 10 Este 27 Este 0 -- -- 70
2019-06-06 18:00:00 16.1 9 Nordeste 23 Sudeste 0 -- -- 67
2019-06-06 17:00:00 16.3 6 Norte 32 Noroeste 0 -- -- 65
2019-06-06 16:00:00 17.4 9 Norte 31 Noroeste 0 -- -- 58
2019-06-06 15:00:00 17.4 12 Norte 32 Norte 0 -- -- 54
2019-06-06 14:00:00 16.6 10 Norte 29 Norte 0 -- -- 58
2019-06-06 13:00:00 15.7 11 Nordeste 28 Este 0 -- -- 63
2019-06-06 12:00:00 14.2 10 Nordeste 30 Nordeste 0 -- -- 68
2019-06-06 11:00:00 13.6 8 Norte 28 Norte 0 -- -- 74
2019-06-06 10:00:00 13.4 9 Norte 26 Norte 0 -- -- 73
2019-06-06 09:00:00 12.3 6 Norte 19 Norte 0 -- -- 83
2019-06-06 08:00:00 11.3 5 Nordeste 19 Nordeste 0 -- -- 86
2019-06-06 07:00:00 11.5 8 Este 26 Este 0 -- -- 86
2019-06-06 06:00:00 11.4 9 Nordeste 27 Este 0 -- -- 87
2019-06-06 05:00:00 10.3 4 Norte 15 Nordeste 0 -- -- 87
2019-06-06 04:00:00 11.8 4 Este 18 Este 0 -- -- 82
2019-06-06 03:00:00 11.7 9 Nordeste 23 Sudeste 0 -- -- 81
2019-06-06 02:00:00 12 7 Nordeste 29 Este 0 -- -- 83
2019-06-06 01:00:00 12.4 10 Este 32 Sudeste 0 -- -- 83
2019-06-06 00:00:00 13 10 Este 29 Este 0 -- -- 89
2019-06-05 23:00:00 13.2 8 Este 23 Norte 0 -- -- 86
2019-06-05 22:00:00 13.1 9 Nordeste 22 Nordeste -- -- -- 82
2019-06-05 21:00:00 13.6 9 Nordeste 26 Nordeste 0 -- -- 85
2019-06-05 20:00:00 14.5 6 Nordeste 19 Nordeste 0 -- -- 83
2019-06-05 19:00:00 15.8 7 Este 17 Norte 0 -- -- 79
2019-06-05 18:00:00 16.1 6 Nordeste 23 Este 0 -- -- 74
2019-06-05 17:00:00 17.8 8 Nordeste 20 Nordeste 0 -- -- 70
2019-06-05 16:00:00 17.9 10 Nordeste 27 Este 0 -- -- 68
2019-06-05 15:00:00 18.9 9 Nordeste 30 Este 0 -- -- 65
2019-06-05 14:00:00 18 9 Nordeste 26 Norte 0 -- -- 69
2019-06-05 13:00:00 17.7 5 Nordeste 18 Norte 0 -- -- 72
2019-06-05 12:00:00 16.9 9 Nordeste 22 Norte 0 -- -- 79
2019-06-05 11:00:00 17.5 6 Este 20 Este 0 -- -- 68
2019-06-05 10:00:00 16.3 7 Este 27 Este 0 -- -- 76
2019-06-05 09:00:00 16 7 Este 19 Este 0 -- -- 72
2019-06-05 08:00:00 14.3 3 Sudeste 14 Sudeste 0 -- -- 76
2019-06-05 07:00:00 13.3 3 Norte 13 Este 0 -- -- 75
2019-06-05 06:00:00 15 4 Este 44 Norte 0 -- -- 69
2019-06-05 05:00:00 14.9 15 Norte 36 Norte 0 -- -- 73
2019-06-05 04:00:00 16.1 5 Sudoeste 17 Oeste 0 -- -- 60
2019-06-05 03:00:00 15.8 6 Noroeste 32 Noroeste 0 -- -- 58
2019-06-05 02:00:00 16.2 13 Noroeste 29 Noroeste 0 -- -- 63
2019-06-05 01:00:00 17.4 5 Nordeste 23 Noroeste 0 -- -- 53
2019-06-05 00:00:00 17.2 3 Noroeste 9 Noroeste 0 -- -- 44
2019-06-04 23:00:00 18.4 3 Sudoeste 13 Sur 0 -- -- 36
2019-06-04 22:00:00 19.8 5 Noroeste 24 Noroeste 0 -- -- 28
2019-06-04 21:00:00 21 6 Norte 21 Norte 0 -- -- 21
2019-06-04 20:00:00 23.2 4 Norte 24 Noroeste 0 -- -- 18
2019-06-04 19:00:00 25.7 8 Noroeste 23 Norte 0 -- -- 16
2019-06-04 18:00:00 26.7 7 Norte 19 Noroeste 0 -- -- 12
2019-06-04 17:00:00 24.6 7 Sur 17 Sudeste 0 -- -- 27
2019-06-04 16:00:00 25 9 Sudeste 17 Sudeste 0 -- -- 31
2019-06-04 15:00:00 25.5 10 Sudeste 23 Sudoeste 0 -- -- 25
2019-06-04 14:00:00 28.5 10 Noroeste 23 Sudeste 0 -- -- 22
2019-06-04 13:00:00 29.4 8 Sudoeste 27 Norte 0 -- -- 13
2019-06-04 12:00:00 28.9 7 Norte 24 Norte 0 -- -- 13
2019-06-04 11:00:00 27.8 8 Sudeste 30 Noroeste 0 -- -- 21
2019-06-04 10:00:00 27.1 8 Norte 22 Norte 0 -- -- 13
2019-06-04 09:00:00 25.2 5 Norte 25 Norte 0 -- -- 15
2019-06-04 08:00:00 23 6 Norte 27 Norte 0 -- -- 15
2019-06-04 07:00:00 22.3 8 Norte 24 Noroeste 0 -- -- 16
2019-06-04 06:00:00 21.9 13 Norte 33 Norte 0 -- -- 15
2019-06-04 05:00:00 22.3 15 Norte 46 Norte 0 -- -- 16
2019-06-04 04:00:00 21.7 12 Norte 29 Norte 0 -- -- 18
2019-06-04 03:00:00 22 10 Norte 33 Norte 0 -- -- 17
2019-06-04 02:00:00 22.2 12 Norte 34 Norte 0 -- -- 16
2019-06-04 01:00:00 22.2 9 Norte 29 Norte 0 -- -- 15
2019-06-04 00:00:00 22.6 10 Norte 39 Norte 0 -- -- 16
2019-06-03 23:00:00 23.1 15 Norte 37 Nordeste 0 -- -- 14
2019-06-03 22:00:00 23 12 Norte 39 Norte 0 -- -- 15
2019-06-03 21:00:00 22.9 11 Norte 34 Nordeste 0 -- -- 17
2019-06-03 20:00:00 24.9 12 Norte 27 Norte 0 -- -- 13
2019-06-03 19:00:00 27.6 8 Norte 27 Norte 0 -- -- 12
2019-06-03 18:00:00 29 9 Nordeste 30 Norte 0 -- -- 8
2019-06-03 17:00:00 30.2 10 Norte 28 Norte 0 -- -- 8
2019-06-03 16:00:00 29.6 11 Este 23 Este 0 -- -- 9
2019-06-03 15:00:00 30 10 Este 25 Nordeste 0 -- -- 10
2019-06-03 14:00:00 30.1 10 Este 27 Sudeste 0 -- -- 12
2019-06-03 13:00:00 30.2 6 Este 27 Este 0 -- -- 13
2019-06-03 12:00:00 30.1 10 Este 22 Este 0 -- -- 9
2019-06-03 11:00:00 30 8 Nordeste 19 Sudeste 0 -- -- 12
2019-06-03 10:00:00 28.3 6 Nordeste 22 Norte 0 -- -- 13
2019-06-03 09:00:00 27.1 5 Nordeste 17 Este 0 -- -- 16
2019-06-03 08:00:00 21 4 Norte 14 Norte 0 -- -- 23
2019-06-03 07:00:00 19.2 6 Norte 10 Norte 0 -- -- 24
2019-06-03 06:00:00 19.6 5 Norte 11 Este 0 -- -- 23
2019-06-03 05:00:00 22.2 5 Nordeste 21 Noroeste 0 -- -- 20
2019-06-03 04:00:00 19.4 4 Norte 13 Nordeste 0 -- -- 23
2019-06-03 03:00:00 20.7 5 Norte 25 Nordeste 0 -- -- 19
2019-06-03 02:00:00 21.8 5 Nordeste 21 Este 0 -- -- 20
2019-06-03 01:00:00 20.9 7 Norte 15 Nordeste 0 -- -- 32
2019-06-03 00:00:00 22.7 7 Nordeste 24 Norte 0 -- -- 29
2019-06-02 23:00:00 23.7 7 Norte 25 Norte 0 -- -- 18
2019-06-02 22:00:00 23.8 9 Norte 22 Noroeste 0 -- -- 17
2019-06-02 21:00:00 24.4 7 Norte 18 Norte 0 -- -- 22
2019-06-02 20:00:00 26.9 6 Norte 14 Norte 0 -- -- 19
2019-06-02 19:00:00 28.2 5 Este 15 Este 0 -- -- 18
2019-06-02 18:00:00 28.2 8 Este 18 Sudeste 0 -- -- 15
2019-06-02 17:00:00 28.6 9 Este 18 Este 0 -- -- 14
2019-06-02 16:00:00 28.3 9 Este 22 Sudeste 0 -- -- 16
2019-06-02 15:00:00 28.2 11 Este 20 Sudeste 0 -- -- 21
2019-06-02 14:00:00 27.6 11 Este 22 Este 0 -- -- 22
2019-06-02 13:00:00 27.5 9 Este 20 Sudeste 0 -- -- 21
2019-06-02 12:00:00 26.8 9 Este 22 Este 0 -- -- 19
2019-06-02 11:00:00 27 12 Sudeste 27 Sudeste 0 -- -- 18
2019-06-02 10:00:00 25.7 9 Este 22 Sudeste 0 -- -- 21
2019-06-02 09:00:00 24.2 6 Este 25 Este 0 -- -- 25
2019-06-02 08:00:00 19.8 5 Este 20 Nordeste 0 -- -- 33
2019-06-02 07:00:00 19.3 4 Nordeste 15 Norte 0 -- -- 36
2019-06-02 06:00:00 20 5 Nordeste 18 Norte 0 -- -- 33
2019-06-02 05:00:00 18 6 Nordeste 19 Este 0 -- -- 47
2019-06-02 04:00:00 18.6 5 Nordeste 13 Nordeste 0 -- -- 48
2019-06-02 03:00:00 19.2 2 Nordeste 22 Norte 0 -- -- 42
2019-06-02 02:00:00 21.1 5 Nordeste 21 Norte 0 -- -- 39
2019-06-02 01:00:00 20.8 8 Norte 15 Norte 0 -- -- 35
2019-06-02 00:00:00 20.8 4 Norte 13 Este 0 -- -- 34
2019-06-01 23:00:00 21.9 4 Norte 15 Nordeste 0 -- -- 30
2019-06-01 22:00:00 23.1 7 Norte 23 Norte 0 -- -- 21
2019-06-01 21:00:00 24 4 Nordeste 21 Norte 0 -- -- 26
2019-06-01 20:00:00 25.8 4 Nordeste 16 Este 0 -- -- 25
2019-06-01 19:00:00 26.1 9 Este 21 Nordeste 0 -- -- 28
2019-06-01 18:00:00 25.9 10 Este 24 Este 0 -- -- 27
2019-06-01 17:00:00 25.3 9 Este 21 Este 0 -- -- 35
2019-06-01 16:00:00 24.6 10 Este 17 Este 0 -- -- 47
2019-06-01 15:00:00 23.2 7 Sudeste 14 Sudeste 0 -- -- 57
2019-06-01 14:00:00 23.5 10 Sudeste 16 Sudeste 0 -- -- 48
2019-06-01 13:00:00 26.2 9 Sudeste 14 Sudeste 0 -- -- 28
2019-06-01 12:00:00 25.9 8 Sudeste 19 Sudeste 0 -- -- 31
2019-06-01 11:00:00 25.6 9 Sur 14 Sur 0 -- -- 25
2019-06-01 10:00:00 25.1 6 Sudeste 10 Sur 0 -- -- 27
2019-06-01 09:00:00 23 3 Sur 9 Norte 0 -- -- 19
2019-06-01 08:00:00 18.1 5 Norte 11 Noroeste 0 -- -- 23
2019-06-01 07:00:00 17.6 6 Norte 12 Norte 0 -- -- 20
2019-06-01 06:00:00 18.9 5 Norte 14 Nordeste 0 -- -- 15
2019-06-01 05:00:00 19.7 8 Norte 15 Norte 0 -- -- 17
2019-06-01 04:00:00 18.4 4 Nordeste 13 Nordeste 0 -- -- 19
2019-06-01 03:00:00 19.1 5 Nordeste 15 Norte 0 -- -- 17
2019-06-01 02:00:00 18.6 4 Nordeste 13 Norte 0 -- -- 18
2019-06-01 01:00:00 18.8 5 Nordeste 13 Norte 0 -- -- 17
2019-06-01 00:00:00 18.5 6 Norte 12 Norte 0 -- -- 17
2019-05-31 23:00:00 18.7 5 Norte 11 Norte 0 -- -- 17
2019-05-31 22:00:00 19.3 3 Nordeste 14 Norte 0 -- -- 17
2019-05-31 21:00:00 20.8 6 Norte 12 Noroeste 0 -- -- 17
2019-05-31 20:00:00 24.4 4 Noroeste 15 Nordeste 0 -- -- 15
2019-05-31 19:00:00 25.8 7 Este 19 Este 0 -- -- 15
2019-05-31 18:00:00 25.6 9 Este 17 Este 0 -- -- 18
2019-05-31 17:00:00 25.8 10 Este 17 Este 0 -- -- 18
2019-05-31 16:00:00 26.3 9 Este 17 Este 0 -- -- 17
2019-05-31 15:00:00 26.8 7 Este 18 Sudeste 0 -- -- 15
2019-05-31 14:00:00 25.8 10 Este 19 Este 0 -- -- 15
2019-05-31 13:00:00 25.3 9 Este 17 Sudeste 0 -- -- 18
2019-05-31 12:00:00 25 8 Este 17 Sudeste 0 -- -- 15
2019-05-31 11:00:00 24.8 8 Este 15 Sudeste 0 -- -- 16
2019-05-31 10:00:00 23.3 6 Este 12 Este 0 -- -- 18
2019-05-31 09:00:00 19.9 0 Calma 7 Norte 0 -- -- 28
2019-05-31 08:00:00 14.7 6 Norte 10 Norte 0 -- -- 29
2019-05-31 07:00:00 14.1 6 Norte 11 Noroeste 0 -- -- 29
2019-05-31 06:00:00 14.7 5 Norte 12 Este 0 -- -- 26
2019-05-31 05:00:00 15.5 5 Norte 13 Norte 0 -- -- 22
2019-05-31 04:00:00 16.8 5 Norte 14 Norte 0 -- -- 19
2019-05-31 03:00:00 17 5 Norte 15 Norte 0 -- -- 18
2019-05-31 02:00:00 15.8 6 Norte 13 Norte 0 -- -- 21
2019-05-31 01:00:00 15.7 6 Norte 11 Norte 0 -- -- 24
2019-05-31 00:00:00 16 4 Norte 10 Noroeste 0 -- -- 26
2019-05-30 23:00:00 16.8 6 Norte 14 Norte 0 -- -- 23
2019-05-30 22:00:00 17.7 6 Norte 14 Noroeste 0 -- -- 22
2019-05-30 21:00:00 18.6 5 Norte 10 Norte 0 -- -- 26
2019-05-30 20:00:00 22.4 0 Calma 13 Sudeste 0 -- -- 33
2019-05-30 19:00:00 24.4 6 Sudeste 14 Este 0 -- -- 21
2019-05-30 18:00:00 24.5 6 Este 17 Sur 0 -- -- 17
2019-05-30 17:00:00 23.8 7 Sudeste 14 Sudeste 0 -- -- 44
2019-05-30 16:00:00 24.5 9 Sudeste 16 Sur 0 -- -- 48
2019-05-30 15:00:00 24.5 9 Sudeste 17 Sudeste 0 -- -- 44
2019-05-30 14:00:00 23.8 9 Sudeste 16 Sudeste 0 -- -- 43
2019-05-30 13:00:00 23.1 9 Sur 17 Sur 0 -- -- 42
2019-05-30 12:00:00 24 9 Este 18 Este 0 -- -- 20
2019-05-30 11:00:00 23.2 8 Este 15 Este 0 -- -- 22
2019-05-30 10:00:00 22.2 7 Este 13 Este 0 -- -- 22
2019-05-30 09:00:00 20 4 Este 8 Este 0 -- -- 30
2019-05-30 08:00:00 13.1 6 Norte 11 Norte 0 -- -- 22
2019-05-30 07:00:00 12.6 8 Norte 10 Norte 0 -- -- 26
2019-05-30 06:00:00 12.8 7 Norte 13 Norte 0 -- -- 32
2019-05-30 05:00:00 13.4 5 Norte 11 Norte 0 -- -- 29
2019-05-30 04:00:00 14.2 6 Norte 10 Norte 0 -- -- 24
2019-05-30 03:00:00 15.3 6 Norte 14 Norte 0 -- -- 24
2019-05-30 02:00:00 14.8 7 Norte 14 Norte 0 -- -- 25
2019-05-30 01:00:00 15.2 5 Norte 13 Norte 0 -- -- 26
2019-05-30 00:00:00 15.3 5 Norte 11 Norte 0 -- -- 24
2019-05-29 23:00:00 17.7 5 Norte 16 Norte 0 -- -- 18
2019-05-29 22:00:00 17.7 8 Noroeste 19 Norte 0 -- -- 23
2019-05-29 21:00:00 17 0 Calma 8 Norte 0 -- -- 33
2019-05-29 20:00:00 19.6 0 Calma 8 Sudeste 0 -- -- 62
2019-05-29 19:00:00 20.9 5 Sudeste 14 Sudeste 0 -- -- 59
2019-05-29 18:00:00 20.9 7 Sur 16 Sur 0 -- -- 61
2019-05-29 17:00:00 21.1 8 Sur 19 Sur 0 -- -- 60
2019-05-29 16:00:00 20.6 12 Sudeste 22 Sudeste 0 -- -- 61
2019-05-29 15:00:00 23.2 13 Sur 19 Sur 0 -- -- 47
2019-05-29 14:00:00 22.5 9 Sur 14 Sur 0 -- -- 52
2019-05-29 13:00:00 19.4 6 Sur 13 Sudeste 0 -- -- 66
2019-05-29 12:00:00 16.8 6 Sudeste 15 Sudeste 0 -- -- 74
2019-05-29 11:00:00 16.7 8 Sudeste 14 Sudeste 0 -- -- 75
2019-05-29 10:00:00 20.4 6 Sur 14 Este 0 -- -- 57
2019-05-29 09:00:00 20.5 7 Sudeste 13 Sudeste 0 -- -- 24
2019-05-29 08:00:00 14.2 3 Norte 10 Norte 0 -- -- 32
2019-05-29 07:00:00 14.5 5 Norte 14 Norte 0 -- -- 30
2019-05-29 06:00:00 14 5 Norte 11 Norte 0 -- -- 31
2019-05-29 05:00:00 15 4 Norte 16 Norte 0 -- -- 28
2019-05-29 04:00:00 15.2 5 Norte 17 Noroeste 0 -- -- 28
2019-05-29 03:00:00 14.5 3 Nordeste 9 Nordeste 0 -- -- 29
2019-05-29 02:00:00 15 4 Norte 10 Norte 0 -- -- 28
2019-05-29 01:00:00 14.9 4 Norte 11 Nordeste 0 -- -- 29
2019-05-29 00:00:00 15.5 5 Norte 12 Norte 0 -- -- 33
2019-05-28 23:00:00 16.3 6 Norte 14 Norte 0 -- -- 34
2019-05-28 22:00:00 18.2 6 Noroeste 20 Noroeste 0 -- -- 32
2019-05-28 21:00:00 18.5 3 Norte 11 Nordeste 0 -- -- 36
2019-05-28 20:00:00 20.6 3 Este 11 Este 0 -- -- 42
2019-05-28 19:00:00 22.6 6 Sudeste 14 Sudeste 0 -- -- 29
2019-05-28 18:00:00 23.6 8 Sur 22 Sur 0 -- -- 35
2019-05-28 17:00:00 23.7 11 Sudeste 21 Sudeste 0 -- -- 29
2019-05-28 16:00:00 23.9 12 Sudeste 21 Sudeste 0 -- -- 43
2019-05-28 15:00:00 23.5 10 Sudeste 18 Sudeste 0 -- -- 33
2019-05-28 14:00:00 23.1 8 Este 16 Sudeste 0 -- -- 31
2019-05-28 13:00:00 22.3 8 Sudeste 16 Sudeste 0 -- -- 56
2019-05-28 12:00:00 21.9 8 Sudeste 17 Sudeste 0 -- -- 49
2019-05-28 11:00:00 22.7 9 Sudeste 16 Este 0 -- -- 33
2019-05-28 10:00:00 21.8 8 Sur 13 Sudeste 0 -- -- 35
2019-05-28 09:00:00 20.3 5 Este 10 Nordeste 0 -- -- 36
2019-05-28 08:00:00 14.4 6 Norte 11 Norte 0 -- -- 45
2019-05-28 07:00:00 14.5 6 Norte 10 Norte 0 -- -- 47
2019-05-28 06:00:00 16.2 5 Norte 22 Norte 0 -- -- 43
2019-05-28 05:00:00 14.2 7 Norte 15 Norte 0 -- -- 47
2019-05-28 04:00:00 14 6 Norte 10 Norte 0 -- -- 45
2019-05-28 03:00:00 14.9 6 Norte 18 Nordeste 0 -- -- 44
2019-05-28 02:00:00 16.2 8 Norte 26 Norte 0 -- -- 41
2019-05-28 01:00:00 15.5 6 Norte 14 Norte 0 -- -- 41
2019-05-28 00:00:00 16 3 Este 14 Este 0 -- -- 38